createdAt,value
2018-03-07T00:00:45.215Z,116.30
2018-03-07T00:03:12.719Z,97.62
2018-03-07T00:05:40.223Z,249.88
2018-03-07T00:08:08.504Z,152.12
2018-03-07T00:10:36.783Z,236.45
2018-03-07T00:13:05.063Z,124.78
2018-03-07T00:15:32.563Z,159.20
2018-03-07T00:18:00.059Z,132.93
2018-03-07T00:20:28.338Z,199.57
2018-03-07T00:22:56.607Z,261.85
2018-03-07T00:25:24.895Z,298.60
2018-03-07T00:27:53.177Z,160.00
2018-03-07T00:30:21.460Z,354.63
2018-03-07T00:32:48.986Z,186.15
2018-03-07T00:35:16.488Z,243.55
2018-03-07T00:37:43.996Z,266.65
2018-03-07T00:40:11.613Z,110.88
2018-03-07T00:42:39.122Z,99.68
2018-03-07T00:45:06.635Z,128.45
2018-03-07T00:47:34.138Z,103.07
2018-03-07T00:50:01.663Z,129.15
2018-03-07T00:52:29.164Z,117.85
2018-03-07T00:54:57.431Z,120.32
2018-03-07T00:57:25.015Z,142.68
2018-03-07T00:59:53.283Z,181.35
2018-03-07T01:02:21.568Z,123.55
2018-03-07T01:04:49.851Z,103.47
2018-03-07T01:07:17.439Z,111.57
2018-03-07T01:09:44.947Z,125.25
2018-03-07T01:12:12.463Z,115.57
2018-03-07T01:14:39.959Z,111.37
2018-03-07T01:17:07.451Z,104.28
2018-03-07T01:19:34.976Z,121.37
2018-03-07T01:22:02.471Z,147.43
2018-03-07T01:24:30.008Z,130.27
2018-03-07T01:26:58.290Z,89.32
2018-03-07T01:29:26.542Z,87.47
2018-03-07T01:31:54.051Z,80.43
2018-03-07T01:34:21.847Z,80.60
2018-03-07T01:36:49.339Z,79.28
2018-03-07T01:39:17.609Z,86.47
2018-03-07T01:41:45.881Z,89.78
2018-03-07T01:44:13.403Z,77.78
2018-03-07T01:46:40.911Z,80.20
2018-03-07T01:49:09.167Z,84.82
2018-03-07T01:51:48.615Z,86.57
2018-03-07T01:54:16.135Z,87.15
2018-03-07T01:56:43.639Z,106.03
2018-03-07T01:59:11.907Z,120.87
2018-03-07T02:01:39.423Z,118.20
2018-03-07T02:04:06.923Z,115.47
2018-03-07T02:06:34.435Z,114.97
2018-03-07T02:09:01.949Z,100.80
2018-03-07T02:11:30.239Z,107.65
2018-03-07T02:13:58.519Z,113.95
2018-03-07T02:16:26.803Z,114.00
2018-03-07T02:18:54.351Z,120.07
2018-03-07T02:21:22.633Z,111.18
2018-03-07T02:23:50.148Z,100.68
2018-03-07T02:26:17.651Z,105.85
2018-03-07T02:28:45.152Z,113.40
2018-03-07T02:31:12.681Z,134.93
2018-03-07T02:33:40.195Z,143.05
2018-03-07T02:49:33.913Z,123.47
2018-03-07T02:52:01.432Z,137.12
2018-03-07T02:54:29.700Z,95.85
2018-03-07T02:56:57.983Z,102.30
2018-03-07T02:59:26.255Z,90.05
2018-03-07T03:01:54.532Z,105.63
2018-03-07T03:04:22.806Z,96.43
2018-03-07T03:06:50.376Z,98.30
2018-03-07T03:09:18.636Z,96.82
2018-03-07T03:11:46.138Z,93.35
2018-03-07T03:14:13.673Z,98.68
2018-03-07T03:16:41.939Z,101.82
2018-03-07T03:19:10.199Z,99.40
2018-03-07T03:21:38.495Z,94.62
2018-03-07T03:24:06.787Z,107.63
2018-03-07T03:26:34.307Z,106.90
2018-03-07T03:29:01.821Z,113.93
2018-03-07T03:31:29.349Z,118.82
2018-03-07T03:33:57.630Z,113.40
2018-03-07T03:36:25.903Z,118.68
2018-03-07T03:38:54.172Z,119.50
2018-03-07T03:41:22.440Z,130.50
2018-03-07T03:43:49.936Z,141.05
2018-03-07T03:46:17.438Z,153.70
2018-03-07T03:48:44.934Z,166.32
2018-03-07T03:51:13.214Z,177.93
2018-03-07T03:53:41.495Z,179.77
2018-03-07T03:56:09.791Z,198.13
2018-03-07T03:58:37.330Z,179.12
2018-03-07T04:01:05.591Z,170.12
2018-03-07T04:03:33.851Z,147.40
2018-03-07T04:06:01.374Z,151.52
2018-03-07T04:08:28.911Z,125.10
2018-03-07T04:10:56.406Z,107.15
2018-03-07T04:13:23.898Z,93.72
2018-03-07T04:15:52.172Z,101.32
2018-03-07T04:18:19.695Z,101.72
2018-03-07T04:20:47.231Z,96.97
2018-03-07T04:23:14.722Z,96.75
2018-03-07T04:25:42.231Z,101.20
2018-03-07T04:28:09.739Z,110.20
2018-03-07T04:30:37.243Z,96.87
2018-03-07T04:33:05.495Z,97.88
2018-03-07T04:35:32.995Z,88.70
2018-03-07T04:38:00.492Z,95.15
2018-03-07T04:40:28.117Z,92.53
2018-03-07T04:42:55.619Z,106.12
2018-03-07T04:45:23.114Z,92.18
2018-03-07T04:47:50.623Z,94.93
2018-03-07T04:50:18.148Z,92.30
2018-03-07T04:52:45.648Z,91.00
2018-03-07T04:55:13.150Z,93.90
2018-03-07T04:57:41.410Z,101.15
2018-03-07T05:00:09.695Z,127.50
2018-03-07T05:02:38.003Z,99.32
2018-03-07T05:05:06.251Z,98.32
2018-03-07T05:07:34.535Z,89.95
2018-03-07T05:10:02.031Z,96.37
2018-03-07T05:12:29.526Z,94.28
2018-03-07T05:14:57.795Z,94.90
2018-03-07T05:17:25.287Z,92.68
2018-03-07T05:19:52.790Z,93.78
2018-03-07T05:22:20.295Z,89.28
2018-03-07T05:24:48.567Z,106.05
2018-03-07T05:27:16.847Z,90.28
2018-03-07T05:29:45.127Z,110.70
2018-03-07T05:32:13.395Z,109.03
2018-03-07T05:34:41.662Z,168.93
2018-03-07T05:37:09.940Z,135.02
2018-03-07T05:39:38.222Z,114.62
2018-03-07T05:42:06.494Z,101.87
2018-03-07T05:44:34.779Z,104.53
2018-03-07T05:47:03.048Z,93.25
2018-03-07T05:49:31.319Z,85.40
2018-03-07T05:51:59.581Z,91.95
2018-03-07T05:54:27.079Z,95.15
2018-03-07T05:56:54.623Z,93.47
2018-03-07T05:59:22.892Z,97.07
2018-03-07T06:01:51.166Z,102.65
2018-03-07T06:04:19.431Z,87.78
2018-03-07T06:06:46.932Z,103.15
2018-03-07T06:09:14.442Z,93.62
2018-03-07T06:11:41.955Z,96.72
2018-03-07T06:14:09.451Z,94.37
2018-03-07T06:16:36.956Z,97.88
2018-03-07T06:19:04.459Z,100.28
2018-03-07T06:21:31.964Z,100.85
2018-03-07T06:24:00.334Z,104.07
2018-03-07T06:26:28.606Z,101.43
2018-03-07T06:28:56.875Z,108.05
2018-03-07T06:31:24.397Z,106.25
2018-03-07T06:33:51.907Z,112.80
2018-03-07T06:36:20.171Z,111.03
2018-03-07T06:38:47.668Z,106.15
2018-03-07T06:41:15.191Z,106.97
2018-03-07T06:43:43.476Z,115.75
2018-03-07T06:46:11.743Z,113.60
2018-03-07T06:48:40.169Z,109.57
2018-03-07T06:51:07.692Z,112.75
2018-03-07T06:53:35.978Z,110.78
2018-03-07T06:56:03.486Z,109.82
2018-03-07T06:58:30.985Z,120.47
2018-03-07T07:00:59.267Z,120.70
2018-03-07T07:03:27.535Z,117.60
2018-03-07T07:05:55.799Z,127.03
2018-03-07T07:08:23.311Z,114.07
2018-03-07T07:10:50.827Z,111.10
2018-03-07T07:13:19.094Z,112.10
2018-03-07T07:15:46.588Z,121.00
2018-03-07T07:18:14.087Z,123.00
2018-03-07T07:20:41.604Z,115.57
2018-03-07T07:23:09.111Z,113.85
2018-03-07T07:25:36.615Z,126.80
2018-03-07T07:28:04.131Z,119.68
2018-03-07T07:30:31.647Z,120.40
2018-03-07T07:32:59.155Z,126.68
2018-03-07T07:35:26.684Z,124.53
2018-03-07T07:37:54.199Z,116.70
2018-03-07T07:40:22.548Z,114.90
2018-03-07T07:42:50.058Z,125.12
2018-03-07T07:45:17.559Z,125.38
2018-03-07T07:47:46.578Z,103.50
2018-03-07T07:50:14.870Z,109.68
2018-03-07T07:52:42.371Z,96.12
2018-03-07T07:55:09.920Z,110.03
2018-03-07T07:57:37.466Z,103.62
2018-03-07T08:00:05.695Z,119.80
2018-03-07T08:02:33.196Z,130.18
2018-03-07T08:05:00.756Z,112.30
2018-03-07T08:07:28.284Z,126.28
2018-03-07T08:09:56.548Z,148.00
2018-03-07T08:12:24.071Z,100.20
2018-03-07T08:14:51.586Z,101.97
2018-03-07T08:17:19.887Z,113.37
2018-03-07T08:19:47.406Z,109.85
2018-03-07T08:22:15.691Z,112.95
2018-03-07T08:24:43.955Z,96.55
2018-03-07T08:27:12.239Z,93.03
2018-03-07T08:29:40.521Z,97.55
2018-03-07T08:32:08.783Z,85.93
2018-03-07T08:34:36.295Z,95.78
2018-03-07T08:37:03.795Z,64.97
2018-03-07T08:39:31.304Z,64.10
2018-03-07T08:41:58.803Z,54.55
2018-03-07T08:44:26.338Z,60.65
2018-03-07T08:46:53.984Z,57.97
2018-03-07T08:49:21.644Z,50.63
2018-03-07T08:51:49.185Z,57.15
2018-03-07T08:54:16.728Z,88.75
2018-03-07T08:56:45.068Z,300.60
2018-03-07T08:59:12.702Z,507.90
2018-03-07T09:01:40.238Z,212.77
2018-03-07T09:04:07.823Z,77.82
2018-03-07T09:06:35.357Z,59.55
2018-03-07T09:09:03.722Z,52.17
2018-03-07T09:11:32.143Z,41.15
2018-03-07T09:13:59.711Z,48.78
2018-03-07T09:16:27.276Z,44.97
2018-03-07T09:18:54.924Z,44.50
2018-03-07T09:21:22.680Z,46.30
2018-03-07T09:23:50.238Z,43.33
2018-03-07T09:26:17.906Z,40.72
2018-03-07T09:28:45.478Z,47.62
2018-03-07T09:31:13.091Z,55.08
2018-03-07T09:33:40.661Z,36.03
2018-03-07T09:36:09.074Z,36.90
2018-03-07T09:38:36.618Z,38.75
2018-03-07T09:41:04.172Z,39.00
2018-03-07T09:43:31.723Z,44.88
2018-03-07T09:46:00.103Z,45.63
2018-03-07T09:48:27.652Z,40.72
2018-03-07T09:50:56.045Z,40.22
2018-03-07T09:53:23.582Z,37.50
2018-03-07T09:55:51.941Z,43.60
2018-03-07T09:58:20.320Z,43.78
2018-03-07T10:00:47.859Z,42.35
2018-03-07T10:03:15.465Z,31.05
2018-03-07T10:05:43.858Z,39.45
2018-03-07T10:08:12.157Z,34.83
2018-03-07T10:10:39.815Z,36.40
2018-03-07T10:13:07.360Z,34.15
2018-03-07T10:15:34.924Z,39.13
2018-03-07T10:18:02.449Z,28.58
2018-03-07T10:20:30.063Z,30.85
2018-03-07T10:22:57.634Z,33.80
2018-03-07T10:25:25.195Z,29.08
2018-03-07T10:27:52.773Z,31.37
2018-03-07T10:30:20.361Z,28.25
2018-03-07T10:32:48.651Z,35.53
2018-03-07T10:35:17.055Z,33.40
2018-03-07T10:37:44.670Z,36.50
2018-03-07T10:40:12.986Z,32.40
2018-03-07T10:42:40.528Z,35.92
2018-03-07T10:45:08.116Z,30.42
2018-03-07T10:47:35.682Z,29.58
2018-03-07T10:50:03.228Z,34.47
2018-03-07T10:52:30.778Z,32.67
2018-03-07T10:54:58.323Z,32.95
2018-03-07T10:57:26.592Z,33.38
2018-03-07T10:59:54.902Z,34.53
2018-03-07T11:02:22.471Z,30.55
2018-03-07T11:04:50.032Z,29.55
2018-03-07T11:07:17.701Z,28.20
2018-03-07T11:09:45.278Z,31.73
2018-03-07T11:12:12.848Z,30.80
2018-03-07T11:14:40.509Z,29.35
2018-03-07T11:17:08.322Z,26.10
2018-03-07T11:19:35.879Z,29.25
2018-03-07T11:22:03.419Z,28.23
2018-03-07T11:24:31.752Z,26.87
2018-03-07T11:26:59.340Z,28.20
2018-03-07T11:29:27.674Z,27.50
2018-03-07T11:31:55.250Z,28.27
2018-03-07T11:34:22.889Z,29.52
2018-03-07T11:36:50.461Z,23.62
2018-03-07T11:39:18.034Z,27.65
2018-03-07T11:41:45.580Z,27.20
2018-03-07T11:44:13.148Z,26.20
2018-03-07T11:46:40.679Z,28.40
2018-03-07T11:49:08.233Z,25.50
2018-03-07T11:51:35.770Z,24.63
2018-03-07T11:54:04.081Z,26.60
2018-03-07T11:56:31.630Z,25.42
2018-03-07T11:58:59.160Z,27.23
2018-03-07T12:01:27.472Z,24.98
2018-03-07T12:03:55.009Z,23.52
2018-03-07T12:06:23.319Z,26.12
2018-03-07T12:08:50.856Z,24.23
2018-03-07T12:11:18.404Z,18.75
2018-03-07T12:13:45.985Z,18.52
2018-03-07T12:16:13.515Z,19.27
2018-03-07T12:18:41.838Z,17.87
2018-03-07T12:21:09.359Z,17.27
2018-03-07T12:23:36.903Z,17.23
2018-03-07T12:26:05.176Z,17.12
2018-03-07T12:28:33.496Z,16.27
2018-03-07T12:31:01.020Z,19.30
2018-03-07T12:33:29.320Z,18.37
2018-03-07T12:35:56.969Z,17.73
2018-03-07T12:38:25.281Z,20.25
2018-03-07T12:40:52.797Z,17.33
2018-03-07T12:43:21.072Z,19.08
2018-03-07T12:45:49.431Z,19.52
2018-03-07T12:48:17.727Z,14.50
2018-03-07T12:50:46.080Z,14.73
2018-03-07T12:53:13.584Z,17.10
2018-03-07T12:55:41.096Z,14.95
2018-03-07T12:58:08.663Z,13.65
2018-03-07T13:00:36.230Z,14.20
2018-03-07T13:03:03.945Z,14.65
2018-03-07T13:05:31.519Z,14.75
2018-03-07T13:07:59.155Z,15.27
2018-03-07T13:10:26.729Z,12.18
2018-03-07T13:12:54.310Z,13.75
2018-03-07T13:15:21.863Z,13.55
2018-03-07T13:17:49.384Z,14.63
2018-03-07T13:20:16.886Z,12.37
2018-03-07T13:22:44.394Z,13.00
2018-03-07T13:25:11.923Z,12.90
2018-03-07T13:27:40.207Z,14.80
2018-03-07T13:30:07.736Z,14.67
2018-03-07T13:32:35.243Z,15.80
2018-03-07T13:35:03.544Z,16.40
2018-03-07T13:37:31.827Z,17.10
2018-03-07T13:39:59.351Z,17.53
2018-03-07T13:42:27.623Z,18.45
2018-03-07T13:44:55.935Z,18.45
2018-03-07T13:47:23.456Z,19.85
2018-03-07T13:49:51.774Z,18.58
2018-03-07T13:52:19.279Z,19.08
2018-03-07T13:54:46.800Z,19.12
2018-03-07T13:57:14.303Z,18.17
2018-03-07T13:59:42.588Z,19.00
2018-03-07T14:02:10.878Z,20.77
2018-03-07T14:04:38.387Z,19.50
2018-03-07T14:07:06.021Z,20.55
2018-03-07T14:09:33.526Z,22.33
2018-03-07T14:12:01.033Z,19.90
2018-03-07T14:14:28.540Z,19.98
2018-03-07T14:16:56.049Z,22.70
2018-03-07T14:19:23.559Z,22.73
2018-03-07T14:21:51.069Z,19.37
2018-03-07T14:24:18.611Z,20.77
2018-03-07T14:26:46.131Z,19.02
2018-03-07T14:29:13.635Z,17.95
2018-03-07T14:31:41.179Z,19.10
2018-03-07T14:34:08.716Z,16.83
2018-03-07T14:36:37.012Z,17.83
2018-03-07T14:39:05.299Z,19.87
2018-03-07T14:41:32.840Z,17.13
2018-03-07T14:44:01.115Z,17.70
2018-03-07T14:46:29.387Z,18.60
2018-03-07T14:48:57.049Z,17.63
2018-03-07T14:51:25.362Z,16.57
2018-03-07T14:53:52.863Z,17.50
2018-03-07T14:56:20.395Z,18.90
2018-03-07T14:58:47.956Z,20.47
2018-03-07T15:01:15.461Z,18.23
2018-03-07T15:03:43.007Z,17.03
2018-03-07T15:06:10.587Z,16.87
2018-03-07T15:08:38.900Z,15.80
2018-03-07T15:11:06.398Z,17.60
2018-03-07T15:13:33.918Z,18.43
2018-03-07T15:16:01.444Z,19.63
2018-03-07T15:18:29.761Z,18.33
2018-03-07T15:20:57.258Z,19.27
2018-03-07T15:23:25.806Z,17.87
2018-03-07T15:25:53.527Z,18.80
2018-03-07T15:28:21.791Z,19.63
2018-03-07T15:30:49.350Z,19.80
2018-03-07T15:33:16.883Z,19.10
2018-03-07T15:35:44.450Z,20.13
2018-03-07T15:38:12.011Z,22.00
2018-03-07T15:40:39.556Z,21.10
2018-03-07T15:43:07.072Z,19.87
2018-03-07T15:45:34.607Z,20.23
2018-03-07T15:48:02.105Z,20.80
2018-03-07T15:50:29.623Z,31.07
2018-03-07T15:52:57.135Z,27.20
2018-03-07T15:55:24.743Z,26.13
2018-03-07T15:57:52.249Z,27.47
2018-03-07T16:00:19.775Z,29.27
2018-03-07T16:02:48.082Z,21.67
2018-03-07T16:05:15.576Z,22.43
2018-03-07T16:07:43.096Z,21.90
2018-03-07T16:10:10.652Z,25.35
2018-03-07T16:12:38.218Z,25.75
2018-03-07T16:15:05.743Z,23.12
2018-03-07T16:17:34.062Z,23.55
2018-03-07T16:20:01.583Z,25.45
2018-03-07T16:22:29.859Z,24.73
2018-03-07T16:24:57.382Z,27.05
2018-03-07T16:27:24.957Z,26.87
2018-03-07T16:29:52.475Z,24.30
2018-03-07T16:32:20.020Z,22.37
2018-03-07T16:34:47.519Z,21.58
2018-03-07T16:37:15.015Z,24.35
2018-03-07T16:39:43.282Z,24.23
2018-03-07T16:42:11.543Z,22.48
2018-03-07T16:44:40.569Z,24.10
2018-03-07T16:47:08.067Z,28.35
2018-03-07T16:49:35.563Z,27.98
2018-03-07T16:52:03.827Z,28.35
2018-03-07T16:54:31.442Z,33.85
2018-03-07T16:56:59.222Z,29.50
2018-03-07T16:59:27.540Z,29.08
2018-03-07T17:01:55.816Z,28.30
2018-03-07T17:04:23.427Z,34.03
2018-03-07T17:06:50.927Z,35.47
2018-03-07T17:09:18.432Z,36.55
2018-03-07T17:11:46.060Z,56.25
2018-03-07T17:14:14.323Z,86.07
2018-03-07T17:16:41.937Z,59.08
2018-03-07T17:19:09.459Z,36.03
2018-03-07T17:21:37.742Z,31.65
2018-03-07T17:24:06.021Z,27.35
2018-03-07T17:26:34.287Z,30.35
2018-03-07T17:29:02.592Z,33.42
2018-03-07T17:31:30.095Z,24.65
2018-03-07T17:33:57.612Z,23.77
2018-03-07T17:36:25.147Z,20.95
2018-03-07T17:38:52.691Z,25.00
2018-03-07T17:41:20.212Z,27.02
2018-03-07T17:43:47.700Z,21.45
2018-03-07T17:46:15.191Z,25.50
2018-03-07T17:48:43.451Z,25.67
2018-03-07T17:51:11.735Z,30.95
2018-03-07T17:53:40.257Z,26.58
2018-03-07T17:56:07.843Z,32.75
2018-03-07T17:58:35.323Z,28.80
2018-03-07T18:01:03.612Z,28.15
2018-03-07T18:03:31.875Z,27.13
2018-03-07T18:05:59.370Z,24.37
2018-03-07T18:08:26.927Z,21.70
2018-03-07T18:10:54.435Z,21.48
2018-03-07T18:13:22.007Z,22.15
2018-03-07T18:15:49.599Z,26.70
2018-03-07T18:18:17.120Z,22.20
2018-03-07T18:20:44.630Z,27.75
2018-03-07T18:23:12.152Z,34.67
2018-03-07T18:25:40.423Z,28.95
2018-03-07T18:28:07.960Z,31.55
2018-03-07T18:30:35.495Z,25.95
2018-03-07T18:33:03.001Z,26.60
2018-03-07T18:35:30.511Z,29.42
2018-03-07T18:37:58.026Z,25.52
2018-03-07T18:40:26.315Z,26.75
2018-03-07T18:42:54.578Z,32.17
2018-03-07T18:45:22.860Z,27.00
2018-03-07T18:47:51.139Z,27.27
2018-03-07T18:50:19.408Z,28.00
2018-03-07T18:52:47.690Z,23.15
2018-03-07T18:55:15.966Z,22.90
2018-03-07T18:57:44.235Z,22.30
2018-03-07T19:00:12.496Z,29.17
2018-03-07T19:02:39.991Z,25.05
2018-03-07T19:05:07.491Z,32.95
2018-03-07T19:07:35.007Z,42.05
2018-03-07T19:10:02.512Z,33.00
2018-03-07T19:12:30.055Z,29.15
2018-03-07T19:14:57.548Z,35.85
2018-03-07T19:17:25.069Z,36.65
2018-03-07T19:19:52.566Z,32.72
2018-03-07T19:22:20.064Z,27.83
2018-03-07T19:24:47.579Z,28.60
2018-03-07T19:27:16.581Z,27.85
2018-03-07T19:29:44.077Z,26.15
2018-03-07T19:32:11.588Z,27.10
2018-03-07T19:34:40.608Z,29.10
2018-03-07T19:37:08.868Z,26.75
2018-03-07T19:39:36.368Z,26.05
2018-03-07T19:42:03.884Z,26.60
2018-03-07T19:44:32.902Z,29.80
2018-03-07T19:47:01.252Z,28.27
2018-03-07T19:49:28.800Z,23.58
2018-03-07T19:51:56.292Z,24.35
2018-03-07T19:54:24.639Z,26.65
2018-03-07T19:56:52.946Z,25.75
2018-03-07T19:59:20.480Z,35.22
2018-03-07T20:01:48.015Z,29.83
2018-03-07T20:04:15.579Z,26.15
2018-03-07T20:06:43.092Z,26.50
2018-03-07T20:09:10.640Z,27.13
2018-03-07T20:11:38.961Z,26.92
2018-03-07T20:14:06.550Z,26.98
2018-03-07T20:16:34.071Z,29.73
2018-03-07T20:19:01.565Z,27.05
2018-03-07T20:21:29.114Z,25.12
2018-03-07T20:23:56.638Z,27.67
2018-03-07T20:26:24.242Z,26.10
2018-03-07T20:28:51.761Z,25.25
2018-03-07T20:31:19.455Z,27.25
2018-03-07T20:33:47.020Z,26.37
2018-03-07T20:36:14.562Z,25.65
2018-03-07T20:38:42.111Z,26.55
2018-03-07T20:41:09.622Z,24.27
2018-03-07T20:43:37.953Z,32.80
2018-03-07T20:46:05.487Z,29.90
2018-03-07T20:48:33.000Z,25.27
2018-03-07T20:51:00.514Z,26.23
2018-03-07T20:53:28.062Z,26.17
2018-03-07T20:55:55.605Z,28.42
2018-03-07T20:58:23.944Z,27.95
2018-03-07T21:00:51.468Z,26.62
2018-03-07T21:03:18.992Z,27.13
2018-03-07T21:05:47.264Z,28.05
2018-03-07T21:08:15.558Z,31.45
2018-03-07T21:10:43.862Z,33.88
2018-03-07T21:13:11.356Z,31.23
2018-03-07T21:15:38.860Z,31.48
2018-03-07T21:18:06.395Z,36.00
2018-03-07T21:20:34.717Z,30.25
2018-03-07T21:23:02.376Z,28.42
2018-03-07T21:25:29.895Z,43.28
2018-03-07T21:27:58.234Z,33.45
2018-03-07T21:30:25.764Z,36.85
2018-03-07T21:32:53.372Z,33.22
2018-03-07T21:35:20.872Z,28.25
2018-03-07T21:37:48.460Z,28.05
2018-03-07T21:40:15.996Z,27.87
2018-03-07T21:42:43.567Z,32.38
2018-03-07T21:45:11.115Z,27.15
2018-03-07T21:47:38.656Z,30.60
2018-03-07T21:50:06.196Z,26.20
2018-03-07T21:52:33.751Z,27.85
2018-03-07T21:55:01.312Z,28.65
2018-03-07T21:57:28.828Z,28.87
2018-03-07T21:59:56.338Z,25.62
2018-03-07T22:02:23.906Z,27.95
2018-03-07T22:04:52.202Z,24.63
2018-03-07T22:07:19.767Z,24.73
2018-03-07T22:09:47.283Z,22.25
2018-03-07T22:12:14.779Z,22.90
2018-03-07T22:14:42.383Z,24.55
2018-03-07T22:17:09.878Z,24.73
2018-03-07T22:19:38.215Z,23.27
2018-03-07T22:22:05.711Z,19.00
2018-03-07T22:24:34.023Z,23.40
2018-03-07T22:27:01.580Z,15.93
2018-03-07T22:29:29.112Z,13.68
2018-03-07T22:31:57.391Z,16.45
2018-03-07T22:34:25.651Z,14.15
2018-03-07T22:36:53.150Z,13.80
2018-03-07T22:39:20.650Z,13.02
2018-03-07T22:41:48.143Z,14.27
2018-03-07T22:44:16.420Z,12.45
2018-03-07T22:46:44.695Z,11.80
2018-03-07T22:49:12.951Z,13.65
2018-03-07T22:51:40.459Z,13.48
2018-03-07T22:54:07.975Z,13.18
2018-03-07T22:56:35.491Z,11.52
2018-03-07T22:59:03.035Z,11.02
2018-03-07T23:01:30.547Z,11.75
2018-03-07T23:03:58.035Z,10.80
2018-03-07T23:06:25.586Z,9.70
2018-03-07T23:08:53.075Z,11.25
2018-03-07T23:11:20.576Z,11.88
2018-03-07T23:13:48.064Z,9.80
2018-03-07T23:16:16.320Z,10.82
2018-03-07T23:18:43.802Z,9.05
2018-03-07T23:21:11.303Z,8.93
2018-03-07T23:23:38.812Z,9.05
2018-03-07T23:26:07.083Z,8.93
2018-03-07T23:28:35.351Z,10.05
2018-03-07T23:31:03.612Z,9.00
2018-03-07T23:33:31.099Z,8.50
2018-03-07T23:35:59.379Z,6.72
2018-03-07T23:38:26.871Z,8.15
2018-03-07T23:40:54.359Z,8.05
2018-03-07T23:43:21.850Z,8.73
2018-03-07T23:45:50.111Z,9.00
2018-03-07T23:48:18.378Z,8.90
2018-03-07T23:50:45.881Z,11.25
2018-03-07T23:53:13.406Z,10.07
2018-03-07T23:55:41.677Z,9.45
2018-03-07T23:58:09.195Z,10.32
